TimeCST,TemperatureF,Dew PointF,Humidity,Sea Level PressureIn,VisibilityMPH,Wind Direction,Wind SpeedMPH,Gust SpeedMPH,PrecipitationIn,Events,Conditions,WindDirDegrees,DateUTC
12:58 AM,48.9,37.9,66,30.24,-9999.0,Calm,Calm,-,N/A,,Overcast,0,2013-01-06 06:58:00
1:58 AM,46.9,39.9,77,30.24,-9999.0,Calm,Calm,-,N/A,,Mostly Cloudy,0,2013-01-06 07:58:00
2:58 AM,48.0,39.0,71,30.25,-9999.0,North,3.5,-,N/A,,Overcast,350,2013-01-06 08:58:00
3:58 AM,48.0,39.9,74,30.24,-9999.0,North,4.6,-,N/A,,Overcast,360,2013-01-06 09:58:00
4:58 AM,48.0,39.0,71,30.22,-9999.0,NNE,5.8,-,N/A,,Overcast,20,2013-01-06 10:58:00
5:58 AM,48.0,37.9,68,30.24,-9999.0,NNE,5.8,-,N/A,,Overcast,20,2013-01-06 11:58:00
6:58 AM,48.0,37.0,66,30.25,-9999.0,NE,8.1,-,N/A,,Overcast,40,2013-01-06 12:58:00
7:58 AM,48.0,37.0,66,30.26,-9999.0,NNE,5.8,-,N/A,,Overcast,30,2013-01-06 13:58:00
8:58 AM,50.0,37.9,63,30.27,-9999.0,NE,5.8,-,N/A,,Overcast,50,2013-01-06 14:58:00
9:58 AM,50.0,39.0,66,30.26,-9999.0,NNE,9.2,-,N/A,,Overcast,30,2013-01-06 15:58:00
10:58 AM,52.0,37.9,59,30.25,-9999.0,NNE,9.2,-,N/A,,Overcast,20,2013-01-06 16:58:00
11:58 AM,51.1,42.1,71,30.23,-9999.0,NNE,4.6,-,0.00,,Overcast,30,2013-01-06 17:58:00
12:58 PM,53.1,42.1,66,30.20,-9999.0,NNE,5.8,-,0.00,,Overcast,20,2013-01-06 18:58:00
1:58 PM,53.1,42.1,66,30.21,-9999.0,Variable,3.5,-,0.00,Rain,Light Rain,0,2013-01-06 19:58:00
2:33 PM,51.8,42.8,71,30.20,-9999.0,Calm,Calm,-,0.00,,Overcast,0,2013-01-06 20:33:00
2:58 PM,52.0,42.1,69,30.21,-9999.0,Calm,Calm,-,0.00,,Overcast,0,2013-01-06 20:58:00
3:58 PM,52.0,43.0,71,30.21,-9999.0,Calm,Calm,-,N/A,,Mostly Cloudy,0,2013-01-06 21:58:00
4:58 PM,51.1,44.1,77,30.22,-9999.0,Calm,Calm,-,N/A,,Scattered Clouds,0,2013-01-06 22:58:00
5:58 PM,51.1,44.1,77,30.22,-9999.0,Calm,Calm,-,N/A,,Overcast,0,2013-01-06 23:58:00
6:58 PM,48.9,43.0,80,30.25,-9999.0,North,3.5,-,N/A,,Clear,360,2013-01-07 00:58:00
7:58 PM,46.9,42.1,83,30.27,-9999.0,Calm,Calm,-,N/A,,Mostly Cloudy,0,2013-01-07 01:58:00
8:58 PM,48.0,42.1,80,30.27,-9999.0,North,3.5,-,N/A,,Overcast,360,2013-01-07 02:58:00
9:58 PM,46.0,41.0,83,30.28,-9999.0,North,4.6,-,N/A,,Clear,360,2013-01-07 03:58:00
10:58 PM,44.1,39.9,85,30.29,-9999.0,North,6.9,-,N/A,,Clear,360,2013-01-07 04:58:00
11:58 PM,42.1,39.0,89,30.30,-9999.0,Calm,Calm,-,N/A,,Clear,0,2013-01-07 05:58:00